createdAt,value
2018-04-04T00:00:05.242Z,0.00
2018-04-04T00:01:05.329Z,0.00
2018-04-04T00:02:05.421Z,0.00
2018-04-04T00:03:05.516Z,0.00
2018-04-04T00:04:05.609Z,0.00
2018-04-04T00:05:05.699Z,0.00
2018-04-04T00:06:05.796Z,0.00
2018-04-04T00:07:05.883Z,0.00
2018-04-04T00:08:05.977Z,0.00
2018-04-04T00:09:06.068Z,0.00
2018-04-04T00:10:06.163Z,0.00
2018-04-04T00:11:06.253Z,0.00
2018-04-04T00:12:06.348Z,0.00
2018-04-04T00:13:06.437Z,0.00
2018-04-04T00:14:06.530Z,0.00
2018-04-04T00:15:06.629Z,0.00
2018-04-04T00:16:06.723Z,4.00
2018-04-04T00:17:06.818Z,0.00
2018-04-04T00:18:06.915Z,0.00
2018-04-04T00:19:07.007Z,0.00
2018-04-04T00:20:07.100Z,0.00
2018-04-04T00:21:07.201Z,0.00
2018-04-04T00:22:07.290Z,0.00
2018-04-04T00:23:07.384Z,0.00
2018-04-04T00:24:07.477Z,0.00
2018-04-04T00:25:07.580Z,0.00
2018-04-04T00:26:07.674Z,0.00
2018-04-04T00:27:07.766Z,0.00
2018-04-04T00:28:07.856Z,0.00
2018-04-04T00:29:07.947Z,0.00
2018-04-04T00:30:08.042Z,0.00
2018-04-04T00:31:08.138Z,0.00
2018-04-04T00:32:08.221Z,0.00
2018-04-04T00:33:08.313Z,0.00
2018-04-04T00:34:08.402Z,0.00
2018-04-04T00:35:08.501Z,0.00
2018-04-04T00:36:08.589Z,0.00
2018-04-04T00:37:08.685Z,0.00
2018-04-04T00:38:08.783Z,0.00
2018-04-04T00:39:08.871Z,0.00
2018-04-04T00:40:08.962Z,0.00
2018-04-04T00:41:09.056Z,0.00
2018-04-04T00:42:09.145Z,0.00
2018-04-04T00:43:09.242Z,0.00
2018-04-04T00:44:09.334Z,0.00
2018-04-04T00:45:09.423Z,0.00
2018-04-04T00:46:09.517Z,0.00
2018-04-04T00:47:09.616Z,0.00
2018-04-04T00:48:09.702Z,0.00
2018-04-04T00:49:09.798Z,0.00
2018-04-04T00:50:09.887Z,0.00
2018-04-04T00:51:09.977Z,0.00
2018-04-04T00:52:10.068Z,0.00
2018-04-04T00:53:10.165Z,0.00
2018-04-04T00:54:10.256Z,0.00
2018-04-04T00:55:10.346Z,0.00
2018-04-04T00:56:10.433Z,0.00
2018-04-04T00:57:10.535Z,0.00
2018-04-04T00:58:10.631Z,0.00
2018-04-04T00:59:10.725Z,0.00
2018-04-04T01:00:10.823Z,0.00
2018-04-04T01:01:10.923Z,0.00
2018-04-04T01:02:11.009Z,0.00
2018-04-04T01:03:11.101Z,0.00
2018-04-04T01:04:11.192Z,0.00
2018-04-04T01:05:11.279Z,0.00
2018-04-04T01:06:11.374Z,0.00
2018-04-04T01:07:11.466Z,0.00
2018-04-04T01:08:11.562Z,0.00
2018-04-04T01:09:11.650Z,0.00
2018-04-04T01:10:11.741Z,0.00
2018-04-04T01:11:11.836Z,0.00
2018-04-04T01:12:11.928Z,0.00
2018-04-04T01:13:12.020Z,0.00
2018-04-04T01:14:12.111Z,0.00
2018-04-04T01:15:12.205Z,0.00
2018-04-04T01:16:12.296Z,0.00
2018-04-04T01:17:12.387Z,0.00
2018-04-04T01:18:12.481Z,0.00
2018-04-04T01:19:12.575Z,0.00
2018-04-04T01:20:12.668Z,0.00
2018-04-04T01:21:12.758Z,0.00
2018-04-04T01:22:12.857Z,0.00
2018-04-04T01:23:12.941Z,0.00
2018-04-04T01:24:13.035Z,0.00
2018-04-04T01:25:13.132Z,0.00
2018-04-04T01:26:13.222Z,0.00
2018-04-04T01:27:13.318Z,0.00
2018-04-04T01:28:13.407Z,0.00
2018-04-04T01:29:13.509Z,0.00
2018-04-04T01:30:13.597Z,0.00
2018-04-04T01:31:13.686Z,0.00
2018-04-04T01:32:13.774Z,0.00
2018-04-04T01:33:13.875Z,0.00
2018-04-04T01:34:13.964Z,0.00
2018-04-04T01:35:14.055Z,0.00
2018-04-04T01:36:14.144Z,0.00
2018-04-04T01:37:14.238Z,0.00
2018-04-04T01:38:14.335Z,0.00
2018-04-04T01:39:14.425Z,0.00
2018-04-04T01:40:14.521Z,0.00
2018-04-04T01:41:14.609Z,0.00
2018-04-04T01:42:14.706Z,0.00
2018-04-04T01:43:14.800Z,0.00
2018-04-04T01:44:14.897Z,0.00
2018-04-04T01:45:14.990Z,0.00
2018-04-04T01:46:15.082Z,0.00
2018-04-04T01:47:15.176Z,0.00
2018-04-04T01:48:15.266Z,0.00
2018-04-04T01:49:15.356Z,0.00
2018-04-04T01:50:15.461Z,0.00
2018-04-04T01:51:15.553Z,0.00
2018-04-04T01:52:15.643Z,0.00
2018-04-04T01:53:15.732Z,0.00
2018-04-04T01:54:15.824Z,0.00
2018-04-04T01:55:15.927Z,0.00
2018-04-04T01:56:16.023Z,0.00
2018-04-04T01:57:16.119Z,0.00
2018-04-04T01:58:16.213Z,0.00
2018-04-04T01:59:16.305Z,0.00
2018-04-04T02:00:16.398Z,0.00
2018-04-04T02:01:16.485Z,0.00
2018-04-04T02:02:16.586Z,0.00
2018-04-04T02:03:16.682Z,0.00
2018-04-04T02:04:16.768Z,0.00
2018-04-04T02:05:16.859Z,0.00
2018-04-04T02:06:16.950Z,0.00
2018-04-04T02:07:17.043Z,0.00
2018-04-04T02:08:17.146Z,0.00
2018-04-04T02:09:17.240Z,0.00
2018-04-04T02:10:17.331Z,0.00
2018-04-04T02:11:17.424Z,0.00
2018-04-04T02:12:17.520Z,0.00
2018-04-04T02:13:17.607Z,0.00
2018-04-04T02:14:17.697Z,0.00
2018-04-04T02:15:17.797Z,0.00
2018-04-04T02:16:17.887Z,0.00
2018-04-04T02:17:17.982Z,0.00
2018-04-04T02:18:18.071Z,0.00
2018-04-04T02:19:18.166Z,0.00
2018-04-04T02:20:18.258Z,0.00
2018-04-04T02:21:18.365Z,0.00
2018-04-04T02:22:18.456Z,0.00
2018-04-04T02:23:18.551Z,0.00
2018-04-04T02:24:18.643Z,4.00
2018-04-04T02:25:18.723Z,0.00
2018-04-04T02:26:18.814Z,0.00
2018-04-04T02:27:18.905Z,0.00
2018-04-04T02:28:18.993Z,0.00
2018-04-04T02:29:19.086Z,0.00
2018-04-04T02:30:19.244Z,0.00
2018-04-04T02:31:19.271Z,0.00
2018-04-04T02:32:19.362Z,0.00
2018-04-04T02:33:19.458Z,0.00
2018-04-04T02:34:19.551Z,4.00
2018-04-04T02:35:19.638Z,0.00
2018-04-04T02:36:19.732Z,0.00
2018-04-04T02:37:19.825Z,0.00
2018-04-04T02:38:19.910Z,0.00
2018-04-04T02:39:20.002Z,0.00
2018-04-04T02:40:20.772Z,0.00
2018-04-04T02:41:20.232Z,0.00
2018-04-04T02:42:20.347Z,0.00
2018-04-04T02:43:20.420Z,0.00
2018-04-04T02:44:20.528Z,0.00
2018-04-04T02:45:20.615Z,0.00
2018-04-04T02:46:20.705Z,0.00
2018-04-04T02:47:20.834Z,0.00
2018-04-04T02:48:20.913Z,0.00
2018-04-04T02:49:21.025Z,0.00
2018-04-04T02:50:21.112Z,0.00
2018-04-04T02:51:21.201Z,0.00
2018-04-04T02:52:21.277Z,0.00
2018-04-04T02:53:21.361Z,0.00
2018-04-04T02:54:21.438Z,0.00
2018-04-04T02:55:21.531Z,0.00
2018-04-04T02:56:21.654Z,0.00
2018-04-04T02:57:21.728Z,0.00
2018-04-04T02:58:21.809Z,0.00
2018-04-04T02:59:21.943Z,0.00
2018-04-04T03:00:22.052Z,0.00
2018-04-04T03:01:22.149Z,0.00
2018-04-04T03:02:22.240Z,0.00
2018-04-04T03:03:22.322Z,0.00
2018-04-04T03:04:22.403Z,0.00
2018-04-04T03:05:22.488Z,0.00
2018-04-04T03:06:22.569Z,0.00
2018-04-04T03:07:22.649Z,0.00
2018-04-04T03:08:22.742Z,0.00
2018-04-04T03:09:22.830Z,0.00
2018-04-04T03:10:22.916Z,0.00
2018-04-04T03:11:22.997Z,0.00
2018-04-04T03:12:23.079Z,0.00
2018-04-04T03:13:23.183Z,0.00
2018-04-04T03:14:23.275Z,0.00
2018-04-04T03:15:23.374Z,0.00
2018-04-04T03:16:23.459Z,0.00
2018-04-04T03:17:23.606Z,0.00
2018-04-04T03:18:23.691Z,0.00
2018-04-04T03:19:23.771Z,0.00
2018-04-04T03:20:23.852Z,0.00
2018-04-04T03:21:23.939Z,0.00
2018-04-04T03:22:24.032Z,0.00
2018-04-04T03:23:24.118Z,0.00
2018-04-04T03:24:24.205Z,0.00
2018-04-04T03:25:24.289Z,0.00
2018-04-04T03:26:24.394Z,0.00
2018-04-04T03:27:24.473Z,0.00
2018-04-04T03:28:24.564Z,0.00
2018-04-04T03:29:24.648Z,0.00
2018-04-04T03:30:24.737Z,0.00
2018-04-04T03:31:24.858Z,0.00
2018-04-04T03:32:24.971Z,0.00
2018-04-04T03:33:25.054Z,0.00
2018-04-04T03:34:25.154Z,0.00
2018-04-04T03:35:25.232Z,0.00
2018-04-04T03:36:25.371Z,0.00
2018-04-04T03:37:25.456Z,0.00
2018-04-04T03:38:25.547Z,0.00
2018-04-04T03:39:25.630Z,0.00
2018-04-04T03:40:25.737Z,0.00
2018-04-04T03:41:25.810Z,0.00
2018-04-04T03:42:25.899Z,0.00
2018-04-04T03:43:25.986Z,0.00
2018-04-04T03:44:26.080Z,0.00
2018-04-04T03:45:26.183Z,0.00
2018-04-04T03:46:26.260Z,0.00
2018-04-04T03:47:26.335Z,0.00
2018-04-04T03:48:26.425Z,0.00
2018-04-04T03:49:26.516Z,0.00
2018-04-04T03:50:26.600Z,4.00
2018-04-04T03:51:26.696Z,0.00
2018-04-04T03:52:26.769Z,0.00
2018-04-04T03:53:26.847Z,0.00
2018-04-04T03:54:26.924Z,0.00
2018-04-04T03:55:27.004Z,0.00
2018-04-04T03:56:27.101Z,0.00
2018-04-04T03:57:27.219Z,0.00
2018-04-04T03:58:27.299Z,0.00
2018-04-04T03:59:27.382Z,0.00
2018-04-04T04:00:27.455Z,0.00
2018-04-04T04:01:27.550Z,0.00
2018-04-04T04:02:27.650Z,0.00
2018-04-04T04:03:27.740Z,0.00
2018-04-04T04:04:27.849Z,0.00
2018-04-04T04:05:27.942Z,0.00
2018-04-04T04:06:28.027Z,0.00
2018-04-04T04:07:28.124Z,0.00
2018-04-04T04:08:28.204Z,0.00
2018-04-04T04:09:28.302Z,0.00
2018-04-04T04:10:28.382Z,0.00
2018-04-04T04:11:28.476Z,0.00
2018-04-04T04:12:28.558Z,0.00
2018-04-04T04:13:28.632Z,0.00
2018-04-04T04:14:28.717Z,0.00
2018-04-04T04:15:28.842Z,0.00
2018-04-04T04:16:28.930Z,4.00
2018-04-04T04:17:29.017Z,4.00
2018-04-04T04:18:29.156Z,4.00
2018-04-04T04:19:29.176Z,4.00
2018-04-04T04:20:29.261Z,4.00
2018-04-04T04:21:29.353Z,4.00
2018-04-04T04:22:29.432Z,4.00
2018-04-04T04:23:29.617Z,4.00
2018-04-04T04:24:29.606Z,4.00
2018-04-04T04:25:29.683Z,8.00
2018-04-04T04:26:29.786Z,4.00
2018-04-04T04:27:29.875Z,8.00
2018-04-04T04:28:29.967Z,8.00
2018-04-04T04:29:30.060Z,8.00
2018-04-04T04:30:30.155Z,8.00
2018-04-04T04:31:30.253Z,12.00
2018-04-04T04:32:30.346Z,12.00
2018-04-04T04:33:30.440Z,12.00
2018-04-04T04:34:30.532Z,16.00
2018-04-04T04:35:30.622Z,20.00
2018-04-04T04:36:30.710Z,24.00
2018-04-04T04:37:30.801Z,28.00
2018-04-04T04:38:30.891Z,32.00
2018-04-04T04:39:30.980Z,36.00
2018-04-04T04:40:31.077Z,44.00
2018-04-04T04:41:31.173Z,48.00
2018-04-04T04:42:31.284Z,56.00
2018-04-04T04:43:31.353Z,60.00
2018-04-04T04:44:31.441Z,72.00
2018-04-04T04:45:31.538Z,76.00
2018-04-04T04:46:31.624Z,84.00
2018-04-04T04:47:31.713Z,96.00
2018-04-04T04:48:31.804Z,104.00
2018-04-04T04:49:31.909Z,112.00
2018-04-04T04:50:31.988Z,124.00
2018-04-04T04:51:32.069Z,136.00
2018-04-04T04:52:32.159Z,148.00
2018-04-04T04:53:32.249Z,160.00
2018-04-04T04:54:32.344Z,176.00
2018-04-04T04:55:32.446Z,188.00
2018-04-04T04:56:32.528Z,200.00
2018-04-04T04:57:32.624Z,216.00
2018-04-04T04:58:32.713Z,228.00
2018-04-04T04:59:32.829Z,244.00
2018-04-04T05:00:32.914Z,260.00
2018-04-04T05:01:33.006Z,280.00
2018-04-04T05:02:33.098Z,300.00
2018-04-04T05:03:33.196Z,312.00
2018-04-04T05:04:33.319Z,332.00
2018-04-04T05:05:33.437Z,348.00
2018-04-04T05:06:33.557Z,368.00
2018-04-04T05:07:33.633Z,384.00
2018-04-04T05:08:33.743Z,408.00
2018-04-04T05:09:33.885Z,428.00
2018-04-04T05:10:33.973Z,452.00
2018-04-04T05:11:34.068Z,480.00
2018-04-04T05:12:34.165Z,508.00
2018-04-04T05:13:34.257Z,544.00
2018-04-04T05:14:34.357Z,552.00
2018-04-04T05:15:34.436Z,576.00
2018-04-04T05:16:34.526Z,600.00
2018-04-04T05:17:34.633Z,636.00
2018-04-04T05:18:34.762Z,672.00
2018-04-04T05:19:34.855Z,720.00
2018-04-04T05:20:34.978Z,760.00
2018-04-04T05:21:35.035Z,796.00
2018-04-04T05:22:35.137Z,824.00
2018-04-04T05:23:35.235Z,856.00
2018-04-04T05:24:35.318Z,876.00
2018-04-04T05:25:35.419Z,912.00
2018-04-04T05:26:35.510Z,916.00
2018-04-04T05:27:35.598Z,920.00
2018-04-04T05:28:35.700Z,920.00
2018-04-04T05:29:35.787Z,928.00
2018-04-04T05:30:35.882Z,960.00
2018-04-04T05:31:35.973Z,1000.00
2018-04-04T05:32:36.066Z,1028.00
2018-04-04T05:33:36.157Z,1044.00
2018-04-04T05:34:36.257Z,1048.00
2018-04-04T05:35:36.350Z,1056.00
2018-04-04T05:36:36.456Z,1068.00
2018-04-04T05:37:36.548Z,1084.00
2018-04-04T05:38:36.645Z,1108.00
2018-04-04T05:39:36.737Z,1120.00
2018-04-04T05:40:36.833Z,1136.00
2018-04-04T05:41:36.923Z,1172.00
2018-04-04T05:42:37.014Z,1196.00
2018-04-04T05:43:37.103Z,1236.00
2018-04-04T05:44:37.195Z,1272.00
2018-04-04T05:45:37.285Z,1324.00
2018-04-04T05:46:37.377Z,1412.00
2018-04-04T05:47:37.458Z,1484.00
2018-04-04T05:48:37.557Z,1468.00
2018-04-04T05:49:37.664Z,1476.00
2018-04-04T05:50:37.781Z,1508.00
2018-04-04T05:51:37.851Z,1552.00
2018-04-04T05:52:37.940Z,1620.00
2018-04-04T05:53:38.072Z,1676.00
2018-04-04T05:54:38.134Z,1752.00
2018-04-04T05:55:38.232Z,1856.00
2018-04-04T05:56:38.326Z,1964.00
2018-04-04T05:57:38.424Z,2068.00
2018-04-04T05:58:38.508Z,2160.00
2018-04-04T05:59:38.609Z,2224.00
2018-04-04T06:00:38.702Z,2296.00
2018-04-04T06:01:38.794Z,2364.00
2018-04-04T06:02:38.885Z,2436.00
2018-04-04T06:03:38.977Z,2496.00
2018-04-04T06:04:39.071Z,2544.00
2018-04-04T06:05:39.165Z,2564.00
2018-04-04T06:06:39.260Z,2580.00
2018-04-04T06:07:39.358Z,2580.00
2018-04-04T06:08:39.448Z,2584.00
2018-04-04T06:09:39.541Z,2600.00
2018-04-04T06:10:39.632Z,2608.00
2018-04-04T06:11:39.721Z,2620.00
2018-04-04T06:12:39.813Z,2656.00
2018-04-04T06:13:39.913Z,2632.00
2018-04-04T06:14:39.998Z,2688.00
2018-04-04T06:15:40.093Z,2736.00
2018-04-04T06:16:40.187Z,2820.00
2018-04-04T06:17:40.286Z,2968.00
2018-04-04T06:18:40.378Z,3196.00
2018-04-04T06:19:40.469Z,3352.00
2018-04-04T06:20:40.562Z,3472.00
2018-04-04T06:21:40.655Z,3796.00
2018-04-04T06:22:40.746Z,3924.00
2018-04-04T06:23:40.844Z,4284.00
2018-04-04T06:24:40.940Z,4712.00
2018-04-04T06:25:41.028Z,5212.00
2018-04-04T06:26:41.123Z,5488.00
2018-04-04T06:27:41.216Z,5664.00
2018-04-04T06:28:41.312Z,5708.00
2018-04-04T06:29:41.406Z,5364.00
2018-04-04T06:30:41.500Z,5512.00
2018-04-04T06:31:41.626Z,5940.00
2018-04-04T06:32:41.685Z,5772.00
2018-04-04T06:33:41.769Z,6048.00
2018-04-04T06:34:41.865Z,6064.00
2018-04-04T06:35:41.955Z,6508.00
2018-04-04T06:36:42.054Z,7072.00
2018-04-04T06:37:42.148Z,6704.00
2018-04-04T06:38:42.234Z,7332.00
2018-04-04T06:39:42.347Z,8108.00
2018-04-04T06:40:42.441Z,9128.00
2018-04-04T06:41:42.536Z,9428.00
2018-04-04T06:42:42.635Z,10624.00
2018-04-04T06:43:42.728Z,9432.00
2018-04-04T06:44:42.818Z,9720.00
2018-04-04T06:45:42.913Z,7496.00
2018-04-04T06:46:42.999Z,6888.00
2018-04-04T06:47:43.101Z,6192.00
2018-04-04T06:48:43.207Z,5828.00
2018-04-04T06:49:43.295Z,5820.00
2018-04-04T06:50:43.403Z,5560.00
2018-04-04T06:51:43.521Z,5616.00
2018-04-04T06:52:43.618Z,6376.00
2018-04-04T06:53:43.707Z,7720.00
2018-04-04T06:54:43.800Z,6756.00
2018-04-04T06:55:43.897Z,5800.00
2018-04-04T06:56:43.994Z,6156.00
2018-04-04T06:57:44.094Z,6212.00
2018-04-04T06:58:44.181Z,5836.00
2018-04-04T06:59:44.278Z,6056.00
2018-04-04T07:00:44.374Z,6124.00
2018-04-04T07:01:44.472Z,5520.00
2018-04-04T07:02:44.570Z,5284.00
2018-04-04T07:03:44.663Z,4360.00
2018-04-04T07:04:44.757Z,4600.00
2018-04-04T07:05:44.852Z,4448.00
2018-04-04T07:06:44.950Z,5212.00
2018-04-04T07:07:45.060Z,5288.00
2018-04-04T07:08:45.147Z,5556.00
2018-04-04T07:09:45.234Z,5280.00
2018-04-04T07:10:45.331Z,4316.00
2018-04-04T07:11:45.427Z,5076.00
2018-04-04T07:12:45.526Z,4636.00
2018-04-04T07:13:45.621Z,4688.00
2018-04-04T07:14:45.706Z,4516.00
2018-04-04T07:15:45.805Z,3788.00
2018-04-04T07:16:45.900Z,4292.00
2018-04-04T07:17:45.998Z,4516.00
2018-04-04T07:18:46.097Z,4224.00
2018-04-04T07:19:46.211Z,4436.00
2018-04-04T07:20:46.304Z,4856.00
2018-04-04T07:21:46.402Z,5324.00
2018-04-04T07:22:46.498Z,4840.00
2018-04-04T07:23:46.592Z,4728.00
2018-04-04T07:24:46.687Z,4912.00
2018-04-04T07:25:46.785Z,5152.00
2018-04-04T07:26:46.881Z,5024.00
2018-04-04T07:27:46.975Z,4976.00
2018-04-04T07:28:47.073Z,5184.00
2018-04-04T07:29:47.172Z,5200.00
2018-04-04T07:30:47.271Z,5528.00
2018-04-04T07:31:47.365Z,5712.00
2018-04-04T07:32:47.462Z,5872.00
2018-04-04T07:33:47.553Z,5620.00
2018-04-04T07:34:47.646Z,4320.00
2018-04-04T07:35:47.740Z,4276.00
2018-04-04T07:36:47.836Z,4372.00
2018-04-04T07:37:47.930Z,4396.00
2018-04-04T07:38:48.025Z,4464.00
2018-04-04T07:39:48.131Z,4668.00
2018-04-04T07:40:48.237Z,4620.00
2018-04-04T07:41:48.334Z,4572.00
2018-04-04T07:42:48.428Z,4512.00
2018-04-04T07:43:48.526Z,4420.00
2018-04-04T07:44:48.616Z,4088.00
2018-04-04T07:45:48.786Z,3640.00
2018-04-04T07:46:48.763Z,3316.00
2018-04-04T07:47:48.856Z,3132.00
2018-04-04T07:48:48.983Z,3104.00
2018-04-04T07:49:49.051Z,3108.00
2018-04-04T07:50:49.155Z,3248.00
2018-04-04T07:51:49.241Z,3164.00
2018-04-04T07:52:49.366Z,3128.00
2018-04-04T07:53:49.463Z,3012.00
2018-04-04T07:54:49.569Z,2908.00
2018-04-04T07:55:49.659Z,2792.00
2018-04-04T07:56:49.780Z,2772.00
2018-04-04T07:57:49.875Z,2860.00
2018-04-04T07:58:49.968Z,2996.00
2018-04-04T07:59:50.102Z,3204.00
2018-04-04T08:00:50.309Z,3072.00
2018-04-04T08:01:50.429Z,2788.00
2018-04-04T08:02:50.452Z,2572.00
2018-04-04T08:03:50.475Z,2332.00
2018-04-04T08:04:50.590Z,2224.00
2018-04-04T08:05:50.806Z,2224.00
2018-04-04T08:06:50.818Z,2452.00
2018-04-04T08:07:50.789Z,3208.00
2018-04-04T08:08:50.978Z,4356.00
2018-04-04T08:09:51.082Z,3460.00
2018-04-04T08:10:51.066Z,3744.00
2018-04-04T08:11:51.163Z,4600.00
2018-04-04T08:12:51.305Z,5392.00
2018-04-04T08:13:51.401Z,5492.00
2018-04-04T08:14:51.505Z,5084.00
2018-04-04T08:15:51.638Z,5144.00
2018-04-04T08:16:51.825Z,4840.00
2018-04-04T08:17:51.874Z,4856.00
2018-04-04T08:18:51.944Z,4700.00
2018-04-04T08:19:52.056Z,4856.00
2018-04-04T08:20:52.106Z,4588.00
2018-04-04T08:21:52.238Z,4332.00
2018-04-04T08:22:52.250Z,4276.00
2018-04-04T08:23:52.329Z,4620.00
2018-04-04T08:24:52.419Z,4108.00
2018-04-04T08:25:52.590Z,4136.00
2018-04-04T08:26:52.633Z,4144.00
2018-04-04T08:27:53.762Z,4148.00
2018-04-04T08:28:52.823Z,4156.00
2018-04-04T08:29:52.954Z,4172.00
2018-04-04T08:30:53.229Z,4192.00
2018-04-04T08:31:53.109Z,4224.00
2018-04-04T08:32:53.587Z,4312.00
2018-04-04T08:33:53.284Z,4328.00
2018-04-04T08:34:53.425Z,4416.00
2018-04-04T08:35:53.397Z,4404.00
2018-04-04T08:36:53.574Z,2868.00
2018-04-04T08:37:53.533Z,3024.00
2018-04-04T08:38:53.621Z,4472.00
2018-04-04T08:39:53.707Z,5180.00
2018-04-04T08:40:53.795Z,4880.00
2018-04-04T08:41:53.899Z,5840.00
2018-04-04T08:42:53.984Z,6140.00
2018-04-04T08:43:54.087Z,6440.00
2018-04-04T08:44:54.188Z,4600.00
2018-04-04T08:45:54.293Z,4548.00
2018-04-04T08:46:54.511Z,4540.00
2018-04-04T08:47:54.529Z,4732.00
2018-04-04T08:48:54.520Z,4152.00
2018-04-04T08:49:54.975Z,3204.00
2018-04-04T08:50:54.773Z,3288.00
2018-04-04T08:51:54.861Z,3496.00
2018-04-04T08:52:54.910Z,4076.00
2018-04-04T08:53:55.049Z,3252.00
2018-04-04T08:54:55.179Z,3136.00
2018-04-04T08:55:55.291Z,3124.00
2018-04-04T08:56:55.410Z,3072.00
2018-04-04T08:57:55.518Z,3028.00
2018-04-04T08:58:55.657Z,3260.00
2018-04-04T08:59:55.754Z,3432.00
2018-04-04T09:00:55.889Z,3560.00
2018-04-04T09:01:56.024Z,3664.00
2018-04-04T09:02:56.133Z,3800.00
2018-04-04T09:03:56.235Z,3748.00
2018-04-04T09:04:56.391Z,3764.00
2018-04-04T09:05:56.501Z,3820.00
2018-04-04T09:06:56.629Z,3952.00
2018-04-04T09:07:56.797Z,4040.00
2018-04-04T09:08:56.928Z,4284.00
2018-04-04T09:09:56.999Z,4900.00
2018-04-04T09:10:57.105Z,5440.00
2018-04-04T09:11:57.209Z,6140.00
2018-04-04T09:12:57.314Z,6712.00
2018-04-04T09:13:57.414Z,7244.00
2018-04-04T09:14:57.502Z,7116.00
2018-04-04T09:15:57.596Z,7032.00
2018-04-04T09:16:57.701Z,6876.00
2018-04-04T09:17:57.821Z,6696.00
2018-04-04T09:18:57.929Z,6444.00
2018-04-04T09:19:58.030Z,6156.00
2018-04-04T09:20:58.087Z,5872.00
2018-04-04T09:21:58.189Z,5608.00
2018-04-04T09:22:58.297Z,5396.00
2018-04-04T09:23:58.400Z,5188.00
2018-04-04T09:24:58.536Z,4912.00
2018-04-04T09:25:58.630Z,4612.00
2018-04-04T09:26:58.735Z,4464.00
2018-04-04T09:27:58.846Z,4540.00
2018-04-04T09:28:58.968Z,4716.00
2018-04-04T09:29:59.101Z,5068.00
2018-04-04T09:30:59.212Z,5416.00
2018-04-04T09:31:59.299Z,5708.00
2018-04-04T09:32:59.431Z,6000.00
2018-04-04T09:33:59.542Z,6348.00
2018-04-04T09:34:59.636Z,6484.00
2018-04-04T09:35:59.734Z,6544.00
2018-04-04T09:36:59.824Z,6712.00
2018-04-04T09:38:02.435Z,6568.00
2018-04-04T09:39:00.040Z,6484.00
2018-04-04T09:40:00.142Z,6308.00
2018-04-04T09:41:00.255Z,5976.00
2018-04-04T09:42:00.431Z,5644.00
2018-04-04T09:43:00.402Z,5476.00
2018-04-04T09:44:00.494Z,5260.00
2018-04-04T09:45:00.593Z,5228.00
2018-04-04T09:46:00.708Z,5452.00
2018-04-04T09:47:00.811Z,5556.00
2018-04-04T09:48:00.904Z,5416.00
2018-04-04T09:49:01.028Z,5196.00
2018-04-04T09:50:01.119Z,5248.00
2018-04-04T09:51:01.262Z,5632.00
2018-04-04T09:52:01.432Z,6128.00
2018-04-04T09:53:01.486Z,6560.00
2018-04-04T09:54:01.578Z,6984.00
2018-04-04T09:55:01.691Z,7700.00
2018-04-04T09:56:01.843Z,7784.00
2018-04-04T09:57:01.915Z,7568.00
2018-04-04T09:58:02.009Z,7136.00
2018-04-04T09:59:02.099Z,6444.00
2018-04-04T10:00:02.197Z,6168.00
2018-04-04T10:01:02.293Z,6224.00
2018-04-04T10:02:02.392Z,6444.00
2018-04-04T10:03:02.504Z,6808.00
2018-04-04T10:04:02.604Z,7248.00
2018-04-04T10:05:02.707Z,7624.00
2018-04-04T10:06:02.808Z,7892.00
2018-04-04T10:07:02.973Z,8108.00
2018-04-04T10:08:02.947Z,8852.00
2018-04-04T10:09:03.052Z,8708.00
2018-04-04T10:10:03.150Z,8700.00
2018-04-04T10:11:03.253Z,8884.00
2018-04-04T10:12:03.354Z,10384.00
2018-04-04T10:13:03.453Z,8288.00
2018-04-04T10:14:03.561Z,7520.00
2018-04-04T10:15:03.654Z,7532.00
2018-04-04T10:16:03.757Z,6692.00
2018-04-04T10:17:03.853Z,5648.00
2018-04-04T10:18:03.952Z,7332.00
2018-04-04T10:19:04.046Z,6972.00
2018-04-04T10:20:04.141Z,8976.00
2018-04-04T10:21:04.241Z,10032.00
2018-04-04T10:22:04.349Z,9712.00
2018-04-04T10:23:04.448Z,9200.00
2018-04-04T10:24:04.542Z,8876.00
2018-04-04T10:25:04.640Z,6564.00
2018-04-04T10:26:04.792Z,7124.00
2018-04-04T10:27:04.893Z,7592.00
2018-04-04T10:28:04.992Z,6840.00
2018-04-04T10:29:05.095Z,6652.00
2018-04-04T10:30:05.196Z,7500.00
2018-04-04T10:31:05.286Z,7796.00
2018-04-04T10:32:05.396Z,7464.00
2018-04-04T10:33:05.498Z,6652.00
2018-04-04T10:34:05.599Z,6240.00
2018-04-04T10:35:05.694Z,6232.00
2018-04-04T10:36:05.790Z,7288.00
2018-04-04T10:37:05.893Z,6088.00
2018-04-04T10:38:06.001Z,5452.00
2018-04-04T10:39:06.103Z,5572.00
2018-04-04T10:40:06.196Z,6076.00
2018-04-04T10:41:06.299Z,6700.00
2018-04-04T10:42:06.395Z,5900.00
2018-04-04T10:43:06.496Z,5944.00
2018-04-04T10:44:06.616Z,6004.00
2018-04-04T10:45:06.705Z,5712.00
2018-04-04T10:46:06.806Z,5728.00
2018-04-04T10:47:06.905Z,5820.00
2018-04-04T10:48:07.001Z,5732.00
2018-04-04T10:49:07.098Z,5172.00
2018-04-04T10:50:07.190Z,5144.00
2018-04-04T10:51:07.326Z,4928.00
2018-04-04T10:52:07.388Z,4588.00
2018-04-04T10:53:07.486Z,4384.00
2018-04-04T10:54:07.584Z,4112.00
2018-04-04T10:55:07.685Z,4016.00
2018-04-04T10:56:07.783Z,3972.00
2018-04-04T10:57:07.883Z,4080.00
2018-04-04T10:58:07.984Z,4324.00
2018-04-04T10:59:08.091Z,4592.00
2018-04-04T11:00:08.179Z,4720.00
2018-04-04T11:01:08.288Z,4852.00
2018-04-04T11:02:08.387Z,5080.00
2018-04-04T11:03:08.487Z,5004.00
2018-04-04T11:04:08.587Z,5384.00
2018-04-04T11:05:08.686Z,5516.00
2018-04-04T11:06:08.792Z,5084.00
2018-04-04T11:07:08.961Z,5096.00
2018-04-04T11:08:08.980Z,5368.00
2018-04-04T11:09:09.085Z,5620.00
2018-04-04T11:10:09.194Z,5796.00
2018-04-04T11:11:09.295Z,5876.00
2018-04-04T11:12:09.396Z,5948.00
2018-04-04T11:13:09.498Z,5952.00
2018-04-04T11:14:09.598Z,5880.00
2018-04-04T11:15:09.732Z,5820.00
2018-04-04T11:16:09.832Z,5964.00
2018-04-04T11:17:09.932Z,6156.00
2018-04-04T11:18:10.027Z,6552.00
2018-04-04T11:19:10.123Z,6644.00
2018-04-04T11:20:10.218Z,6792.00
2018-04-04T11:21:10.320Z,7148.00
2018-04-04T11:22:10.419Z,7184.00
2018-04-04T11:23:10.526Z,7400.00
2018-04-04T11:24:10.670Z,7460.00
2018-04-04T11:25:10.731Z,7944.00
2018-04-04T11:26:10.835Z,8648.00
2018-04-04T11:27:10.943Z,8644.00
2018-04-04T11:28:11.041Z,9472.00
2018-04-04T11:29:11.138Z,9856.00
2018-04-04T11:30:11.236Z,10936.00
2018-04-04T11:31:11.335Z,11376.00
2018-04-04T11:32:11.436Z,11028.00
2018-04-04T11:33:11.545Z,9032.00
2018-04-04T11:34:11.640Z,8152.00
2018-04-04T11:35:11.743Z,7584.00
2018-04-04T11:36:11.847Z,7376.00
2018-04-04T11:37:11.940Z,7460.00
2018-04-04T11:38:12.041Z,7532.00
2018-04-04T11:39:12.143Z,8820.00
2018-04-04T11:40:12.246Z,9100.00
2018-04-04T11:41:12.345Z,9536.00
2018-04-04T11:42:12.445Z,9400.00
2018-04-04T11:43:12.545Z,9296.00
2018-04-04T11:44:12.652Z,9380.00
2018-04-04T11:45:12.749Z,9436.00
2018-04-04T11:46:12.848Z,9324.00
2018-04-04T11:47:12.958Z,8704.00
2018-04-04T11:48:13.052Z,9120.00
2018-04-04T11:49:13.151Z,9020.00
2018-04-04T11:50:13.252Z,8200.00
2018-04-04T11:51:13.356Z,8860.00
2018-04-04T11:52:13.474Z,9144.00
2018-04-04T11:53:13.569Z,8696.00
2018-04-04T11:54:13.669Z,7252.00
2018-04-04T11:55:13.766Z,8144.00
2018-04-04T11:56:13.868Z,7756.00
2018-04-04T11:57:13.969Z,7788.00
2018-04-04T11:58:14.076Z,7724.00
2018-04-04T11:59:14.177Z,7588.00
2018-04-04T12:00:14.276Z,7984.00
2018-04-04T12:01:14.376Z,8008.00
2018-04-04T12:02:14.496Z,7712.00
2018-04-04T12:03:14.598Z,7448.00
2018-04-04T12:04:14.701Z,7288.00
2018-04-04T12:05:14.804Z,7676.00
2018-04-04T12:06:14.928Z,7812.00
2018-04-04T12:07:14.999Z,7676.00
2018-04-04T12:08:15.103Z,7552.00
2018-04-04T12:09:15.199Z,7768.00
2018-04-04T12:10:15.306Z,7988.00
2018-04-04T12:11:15.400Z,8536.00
2018-04-04T12:12:15.504Z,10496.00
2018-04-04T12:13:15.604Z,11052.00
2018-04-04T12:14:15.705Z,11240.00
2018-04-04T12:15:15.807Z,10804.00
2018-04-04T12:16:15.910Z,9384.00
2018-04-04T12:17:16.006Z,8904.00
2018-04-04T12:18:16.113Z,7888.00
2018-04-04T12:19:16.216Z,7136.00
2018-04-04T12:20:16.319Z,6984.00
2018-04-04T12:21:16.419Z,8928.00
2018-04-04T12:22:16.518Z,9096.00
2018-04-04T12:23:16.617Z,9088.00
2018-04-04T12:24:16.724Z,9044.00
2018-04-04T12:25:16.822Z,8840.00
2018-04-04T12:26:16.921Z,6372.00
2018-04-04T12:27:17.025Z,8208.00
2018-04-04T12:28:17.122Z,9160.00
2018-04-04T12:29:17.225Z,6984.00
2018-04-04T12:30:17.340Z,8784.00
2018-04-04T12:31:17.433Z,9256.00
2018-04-04T12:32:17.535Z,8396.00
2018-04-04T12:33:17.639Z,8092.00